This is the latest recevied weather packets stored in our database for station/object KA0EGE. If no packets are shown the sender has not sent any weather packets the latest 10 day(s).
| Time | Temp. | Humidity | Pressure | Rain* | Wind** | Luminosity | Snow |
|---|---|---|---|---|---|---|---|
| 1777899043 | 16.67° C | 71% | 1020.9 hPa | 0 mm | - | 171 W/m² | - |
| 1777898740 | 16.11° C | 74% | 1021 hPa | 0 mm | - | 152 W/m² | - |
| 1777898438 | 15.56° C | 74% | 1021.1 hPa | 0 mm | - | 136 W/m² | - |
| 1777898136 | 15° C | 77% | 1021 hPa | 0 mm | - | 122 W/m² | - |
| 1777897832 | 13.89° C | 80% | 1021 hPa | 0 mm | - | 107 W/m² | - |
| 1777897528 | 13.33° C | 84% | 1020.9 hPa | 0 mm | - | 92 W/m² | - |
| 1777897224 | 12.78° C | 89% | 1021 hPa | 0 mm | - | 79 W/m² | - |
| 1777896920 | 11.67° C | 90% | 1020.8 hPa | 0 mm | - | 67 W/m² | - |
| 1777896618 | 11.11° C | 94% | 1021 hPa | 0 mm | - | 60 W/m² | - |
| 1777896314 | 10° C | 96% | 1020.9 hPa | 0 mm | - | 56 W/m² | - |
| 1777896013 | 9.44° C | 97% | 1020.8 hPa | 0 mm | - | 51 W/m² | - |
| 1777895710 | 8.89° C | 98% | 1020.8 hPa | 0 mm | - | 45 W/m² | - |
| 1777895407 | 8.33° C | 98% | 1020.9 hPa | 0 mm | - | 41 W/m² | - |
| 1777895105 | 8.33° C | 98% | 1020.9 hPa | 0 mm | - | 30 W/m² | - |
| 1777894802 | 7.78° C | 99% | 1020.9 hPa | 0 mm | - | 26 W/m² | - |
| 1777894498 | 7.78° C | 99% | 1020.8 hPa | 0 mm | - | 24 W/m² | - |
| 1777894196 | 7.22° C | 99% | 1020.8 hPa | 0 mm | - | 21 W/m² | - |
| 1777893893 | 7.22° C | 99% | 1020.7 hPa | 0 mm | - | 18 W/m² | - |
| 1777893589 | 7.22° C | 99% | 1020.6 hPa | 0 mm | - | 15 W/m² | - |
| 1777893285 | 7.22° C | 99% | 1020.7 hPa | 0 mm | - | 12 W/m² | - |
| 1777892982 | 7.22° C | 99% | 1020.6 hPa | 0 mm | - | 9 W/m² | - |
| 1777892679 | 7.22° C | 99% | 1020.4 hPa | 0 mm | - | 6 W/m² | - |
| 1777892374 | 7.78° C | 99% | 1020.4 hPa | 0 mm | - | 3 W/m² | - |
| 1777892070 | 7.78° C | 99% | 1020.4 hPa | 0 mm | - | 2 W/m² | - |
| 1777891768 | 7.78° C | 99% | 1020.6 hPa | 0 mm | - | 1 W/m² | - |
* Rain latest hour (hover to see other rain measurements)
** Current wind speed in m/s (hover to see current wind gust speed)